Fram — LADA7 — position and weather

sailwx.info

Track history (hours):
 
Tides and Currents Weather Stations Pressure Air Temp Water Temp Dewpoint Dewpoint Depression Visibility Wind Speed Wind Dir Waves Ship Positions

Fram

Last reported at 2019-Sep-16 01:41 UTC. Time now 2019-Sep-21 10:56 UTC.
Position N 63°14' W 051°45'.

Length 114 m; draft 5.1 m.

Type: Passenger vessel. MMSI: 258932000.

Date/timePositionNaut miles runAvg speedWind from/ knotsBaromVisibWave heightAir tempDewpointWater temp
2019-Sep-16 01:41N 63°14' W 051°45'314.6
2019-Sep-16 01:28N 63°17' W 051°47'714.8
2019-Sep-16 01:00N 63°23' W 051°52'714.5
2019-Sep-16 00:31N 63°30' W 051°57'715.0
2019-Sep-16 00:00N 63°37' W 052°03'714.4
2019-Sep-15 23:31N 63°44' W 052°08'714.2
2019-Sep-15 23:00N 63°51' W 052°13'714.4
2019-Sep-15 22:30N 63°57' W 052°19'612.4
2019-Sep-15 22:00N 64°03' W 052°13'612.5
2019-Sep-15 21:30N 64°06' W 051°60'713.9
2019-Sep-15 21:01N 64°09' W 051°46'2 3.1
2019-Sep-15 20:30N 64°10' W 051°43'0 0.0
2019-Sep-15 20:00N 64°10' W 051°43'0 0.0
2019-Sep-15 19:30N 64°10' W 051°43'0 0.0
2019-Sep-15 19:00N 64°10' W 051°43'0 0.0
2019-Sep-15 18:30N 64°10' W 051°43'0 0.0
2019-Sep-15 18:00N 64°10' W 051°43'0 0.0
2019-Sep-15 17:30N 64°10' W 051°43'0 0.0
2019-Sep-15 17:00N 64°10' W 051°43'0 0.0
2019-Sep-15 16:30N 64°10' W 051°43'0 0.0
2019-Sep-15 16:00N 64°10' W 051°43'0 0.0
2019-Sep-15 15:30N 64°10' W 051°43'0 0.0
2019-Sep-15 14:59N 64°10' W 051°43'0 0.0
2019-Sep-15 14:30N 64°10' W 051°43'0 0.0
2019-Sep-15 14:00N 64°10' W 051°43'0 0.0
2019-Sep-15 13:30N 64°10' W 051°43'0 0.0
2019-Sep-15 13:00N 64°10' W 051°43'0 0.0
2019-Sep-15 12:30N 64°10' W 051°43'0 0.0
2019-Sep-15 12:00N 64°10' W 051°43'0 0.0
2019-Sep-15 11:30N 64°10' W 051°43'0 0.0
2019-Sep-15 11:00N 64°10' W 051°43'0 0.0
2019-Sep-15 10:30N 64°10' W 051°43'0 0.0
2019-Sep-15 10:00N 64°10' W 051°43'0 0.0
2019-Sep-15 09:30N 64°10' W 051°43'0 0.0
2019-Sep-15 09:00N 64°10' W 051°43'0 0.0
2019-Sep-15 08:30N 64°10' W 051°43'0 0.0
2019-Sep-15 08:01N 64°10' W 051°43'1 2.7
2019-Sep-15 07:30N 64°09' W 051°46'2 4.2
2019-Sep-15 07:00N 64°11' W 051°46'2 4.9
2019-Sep-15 06:30N 64°13' W 051°42'3 5.5
2019-Sep-15 06:00N 64°14' W 051°36'3 5.8
2019-Sep-15 05:31N 64°14' W 051°29'3 5.2
2019-Sep-15 05:00N 64°15' W 051°24'3 5.3
2019-Sep-15 04:30N 64°17' W 051°20'3 5.6
2019-Sep-15 04:01N 64°19' W 051°16'3 5.8
2019-Sep-15 03:30N 64°22' W 051°14'3 6.2
2019-Sep-15 03:01N 64°25' W 051°12'2 4.7
2019-Sep-15 02:31N 64°27' W 051°09'2 3.9
2019-Sep-15 02:00N 64°29' W 051°08'2 4.0
2019-Sep-15 01:30N 64°30' W 051°06'2 4.6
2019-Sep-15 01:00N 64°32' W 051°04'3 4.4
2019-Sep-15 00:14N 64°33' W 050°56'3 4.6
2019-Sep-14 23:36N 64°32' W 050°50'0 4.3
2019-Sep-14 23:30N 64°32' W 050°49'2 4.2
2019-Sep-14 22:57N 64°31' W 050°45'3 5.6
2019-Sep-14 22:30N 64°28' W 050°42'5 7.2
2019-Sep-14 21:45N 64°25' W 050°32'1 4.6
2019-Sep-14 21:30N 64°25' W 050°30'5 4.4
2019-Sep-14 20:15N 64°26' W 050°17'0 0.5
2019-Sep-14 19:58N 64°26' W 050°17'0 0.0
2019-Sep-14 19:30N 64°26' W 050°17'0 0.0
2019-Sep-14 17:16N 64°26' W 050°17'0 0.1
2019-Sep-14 16:59N 64°26' W 050°17'0 0.1
2019-Sep-14 16:05N 64°26' W 050°17'0 0.2
2019-Sep-14 15:55N 64°26' W 050°17'0 0.0
2019-Sep-14 15:29N 64°26' W 050°17'0 0.0
2019-Sep-14 15:00N 64°26' W 050°17'4 5.2
2019-Sep-14 14:09N 64°24' W 050°27'1 8.3
2019-Sep-14 14:00N 64°25' W 050°29'5 8.3
2019-Sep-14 13:21N 64°27' W 050°41'3 8.0
2019-Sep-14 13:00N 64°27' W 050°47'4 8.3
2019-Sep-14 12:30N 64°25' W 050°56'4 8.4
2019-Sep-14 12:00N 64°21' W 051°01'4 8.6
2019-Sep-14 11:30N 64°17' W 051°05'4 8.4
2019-Sep-14 11:00N 64°14' W 051°09'4 7.7
2019-Sep-14 10:30N 64°12' W 051°17'3 6.9
2019-Sep-14 10:00N 64°14' W 051°23'2 3.5
2019-Sep-14 09:30N 64°14' W 051°27'2 3.6
2019-Sep-14 09:00N 64°14' W 051°31'2 4.2
2019-Sep-14 08:30N 64°14' W 051°36'2 4.4
2019-Sep-14 08:00N 64°13' W 051°41'2 4.9
2019-Sep-14 07:30N 64°12' W 051°45'2 4.9
2019-Sep-14 07:00N 64°10' W 051°48'2 4.9
2019-Sep-14 06:30N 64°08' W 051°53'3 5.0
2019-Sep-14 06:00N 64°06' W 051°57'2 4.5
2019-Sep-14 05:30N 64°05' W 052°02'2 4.7
2019-Sep-14 05:00N 64°04' W 052°06'3 5.9
2019-Sep-14 04:30N 64°03' W 052°13'5 9.9
2019-Sep-14 04:00N 64°06' W 052°22'510.0
2019-Sep-14 03:30N 64°10' W 052°30'5 9.5
2019-Sep-14 03:00N 64°13' W 052°36'5 9.7
2019-Sep-14 02:30N 64°18' W 052°39'4 8.4
2019-Sep-14 02:00N 64°22' W 052°42'4 8.1
2019-Sep-14 01:30N 64°26' W 052°45'4 8.3
2019-Sep-14 01:00N 64°30' W 052°48'4 8.8
2019-Sep-14 00:30N 64°34' W 052°51'4 9.0
2019-Sep-14 00:00N 64°38' W 052°54'4 8.8
2019-Sep-13 23:30N 64°43' W 052°57'4 8.4
2019-Sep-13 23:00N 64°47' W 052°59'4 8.3
2019-Sep-13 22:30N 64°51' W 053°02'4 9.0
2019-Sep-13 22:00N 64°55' W 053°05'510.0
2019-Sep-13 21:30N 64°60' W 053°09'5 9.9
2019-Sep-13 21:00N 65°04' W 053°12'510.1
2019-Sep-13 20:30N 65°09' W 053°14'510.3
2019-Sep-13 20:00N 65°15' W 053°15'510.5
2019-Sep-13 19:30N 65°20' W 053°15'12 9.1
2019-Sep-13 18:12N 65°31' W 053°03'610.4
2019-Sep-13 17:38N 65°34' W 052°51'1 0.2
2019-Sep-13 14:29N 65°35' W 052°51'4 8.5
2019-Sep-13 14:00N 65°32' W 052°58'34 8.1
2019-Sep-13 09:52N 66°01' W 053°40'  
Track history (hours):
 
Tides and Currents Weather Stations Pressure Air Temp Water Temp Dewpoint Dewpoint Depression Visibility Wind Speed Wind Dir Waves Ship Positions

Fram

Last reported at 2019-Sep-16 01:41 UTC. Time now 2019-Sep-21 10:56 UTC.
Position N 63°14' W 051°45'.

Length 114 m; draft 5.1 m.

Type: Passenger vessel. MMSI: 258932000.

Date/timePositionNaut miles runAvg speedWind from/ knotsBaromVisibWave heightAir tempDewpointWater temp
2019-Sep-16 01:41N 63°14' W 051°45'314.6
2019-Sep-16 01:28N 63°17' W 051°47'714.8
2019-Sep-16 01:00N 63°23' W 051°52'714.5
2019-Sep-16 00:31N 63°30' W 051°57'715.0
2019-Sep-16 00:00N 63°37' W 052°03'714.4
2019-Sep-15 23:31N 63°44' W 052°08'714.2
2019-Sep-15 23:00N 63°51' W 052°13'714.4
2019-Sep-15 22:30N 63°57' W 052°19'612.4
2019-Sep-15 22:00N 64°03' W 052°13'612.5
2019-Sep-15 21:30N 64°06' W 051°60'713.9
2019-Sep-15 21:01N 64°09' W 051°46'2 3.1
2019-Sep-15 20:30N 64°10' W 051°43'0 0.0
2019-Sep-15 20:00N 64°10' W 051°43'0 0.0
2019-Sep-15 19:30N 64°10' W 051°43'0 0.0
2019-Sep-15 19:00N 64°10' W 051°43'0 0.0
2019-Sep-15 18:30N 64°10' W 051°43'0 0.0
2019-Sep-15 18:00N 64°10' W 051°43'0 0.0
2019-Sep-15 17:30N 64°10' W 051°43'0 0.0
2019-Sep-15 17:00N 64°10' W 051°43'0 0.0
2019-Sep-15 16:30N 64°10' W 051°43'0 0.0
2019-Sep-15 16:00N 64°10' W 051°43'0 0.0
2019-Sep-15 15:30N 64°10' W 051°43'0 0.0
2019-Sep-15 14:59N 64°10' W 051°43'0 0.0
2019-Sep-15 14:30N 64°10' W 051°43'0 0.0
2019-Sep-15 14:00N 64°10' W 051°43'0 0.0
2019-Sep-15 13:30N 64°10' W 051°43'0 0.0
2019-Sep-15 13:00N 64°10' W 051°43'0 0.0
2019-Sep-15 12:30N 64°10' W 051°43'0 0.0
2019-Sep-15 12:00N 64°10' W 051°43'0 0.0
2019-Sep-15 11:30N 64°10' W 051°43'0 0.0
2019-Sep-15 11:00N 64°10' W 051°43'0 0.0
2019-Sep-15 10:30N 64°10' W 051°43'0 0.0
2019-Sep-15 10:00N 64°10' W 051°43'0 0.0
2019-Sep-15 09:30N 64°10' W 051°43'0 0.0
2019-Sep-15 09:00N 64°10' W 051°43'0 0.0
2019-Sep-15 08:30N 64°10' W 051°43'0 0.0
2019-Sep-15 08:01N 64°10' W 051°43'1 2.7
2019-Sep-15 07:30N 64°09' W 051°46'2 4.2
2019-Sep-15 07:00N 64°11' W 051°46'2 4.9
2019-Sep-15 06:30N 64°13' W 051°42'3 5.5
2019-Sep-15 06:00N 64°14' W 051°36'3 5.8
2019-Sep-15 05:31N 64°14' W 051°29'3 5.2
2019-Sep-15 05:00N 64°15' W 051°24'3 5.3
2019-Sep-15 04:30N 64°17' W 051°20'3 5.6
2019-Sep-15 04:01N 64°19' W 051°16'3 5.8
2019-Sep-15 03:30N 64°22' W 051°14'3 6.2
2019-Sep-15 03:01N 64°25' W 051°12'2 4.7
2019-Sep-15 02:31N 64°27' W 051°09'2 3.9
2019-Sep-15 02:00N 64°29' W 051°08'2 4.0
2019-Sep-15 01:30N 64°30' W 051°06'2 4.6
2019-Sep-15 01:00N 64°32' W 051°04'3 4.4
2019-Sep-15 00:14N 64°33' W 050°56'3 4.6
2019-Sep-14 23:36N 64°32' W 050°50'0 4.3
2019-Sep-14 23:30N 64°32' W 050°49'2 4.2
2019-Sep-14 22:57N 64°31' W 050°45'3 5.6
2019-Sep-14 22:30N 64°28' W 050°42'5 7.2
2019-Sep-14 21:45N 64°25' W 050°32'1 4.6
2019-Sep-14 21:30N 64°25' W 050°30'5 4.4
2019-Sep-14 20:15N 64°26' W 050°17'0 0.5
2019-Sep-14 19:58N 64°26' W 050°17'0 0.0
2019-Sep-14 19:30N 64°26' W 050°17'0 0.0
2019-Sep-14 17:16N 64°26' W 050°17'0 0.1
2019-Sep-14 16:59N 64°26' W 050°17'0 0.1
2019-Sep-14 16:05N 64°26' W 050°17'0 0.2
2019-Sep-14 15:55N 64°26' W 050°17'0 0.0
2019-Sep-14 15:29N 64°26' W 050°17'0 0.0
2019-Sep-14 15:00N 64°26' W 050°17'4 5.2
2019-Sep-14 14:09N 64°24' W 050°27'1 8.3
2019-Sep-14 14:00N 64°25' W 050°29'5 8.3
2019-Sep-14 13:21N 64°27' W 050°41'3 8.0
2019-Sep-14 13:00N 64°27' W 050°47'4 8.3
2019-Sep-14 12:30N 64°25' W 050°56'4 8.4
2019-Sep-14 12:00N 64°21' W 051°01'4 8.6
2019-Sep-14 11:30N 64°17' W 051°05'4 8.4
2019-Sep-14 11:00N 64°14' W 051°09'4 7.7
2019-Sep-14 10:30N 64°12' W 051°17'3 6.9
2019-Sep-14 10:00N 64°14' W 051°23'2 3.5
2019-Sep-14 09:30N 64°14' W 051°27'2 3.6
2019-Sep-14 09:00N 64°14' W 051°31'2 4.2
2019-Sep-14 08:30N 64°14' W 051°36'2 4.4
2019-Sep-14 08:00N 64°13' W 051°41'2 4.9
2019-Sep-14 07:30N 64°12' W 051°45'2 4.9
2019-Sep-14 07:00N 64°10' W 051°48'2 4.9
2019-Sep-14 06:30N 64°08' W 051°53'3 5.0
2019-Sep-14 06:00N 64°06' W 051°57'2 4.5
2019-Sep-14 05:30N 64°05' W 052°02'2 4.7
2019-Sep-14 05:00N 64°04' W 052°06'3 5.9
2019-Sep-14 04:30N 64°03' W 052°13'5 9.9
2019-Sep-14 04:00N 64°06' W 052°22'510.0
2019-Sep-14 03:30N 64°10' W 052°30'5 9.5
2019-Sep-14 03:00N 64°13' W 052°36'5 9.7
2019-Sep-14 02:30N 64°18' W 052°39'4 8.4
2019-Sep-14 02:00N 64°22' W 052°42'4 8.1
2019-Sep-14 01:30N 64°26' W 052°45'4 8.3
2019-Sep-14 01:00N 64°30' W 052°48'4 8.8
2019-Sep-14 00:30N 64°34' W 052°51'4 9.0
2019-Sep-14 00:00N 64°38' W 052°54'4 8.8
2019-Sep-13 23:30N 64°43' W 052°57'4 8.4
2019-Sep-13 23:00N 64°47' W 052°59'4 8.3
2019-Sep-13 22:30N 64°51' W 053°02'4 9.0
2019-Sep-13 22:00N 64°55' W 053°05'510.0
2019-Sep-13 21:30N 64°60' W 053°09'5 9.9
2019-Sep-13 21:00N 65°04' W 053°12'510.1
2019-Sep-13 20:30N 65°09' W 053°14'510.3
2019-Sep-13 20:00N 65°15' W 053°15'510.5
2019-Sep-13 19:30N 65°20' W 053°15'12 9.1
2019-Sep-13 18:12N 65°31' W 053°03'610.4
2019-Sep-13 17:38N 65°34' W 052°51'1 0.2
2019-Sep-13 14:29N 65°35' W 052°51'4 8.5
2019-Sep-13 14:00N 65°32' W 052°58'34 8.1
2019-Sep-13 09:52N 66°01' W 053°40'  

Dump ship's entire track history